Terminal Aerodrome Forecast
Issued by NWS

Home | Current Version | Previous Version | Text Only | Print | Product List | Glossary On
Versions: 1 2 3 4 5 6 7 8 9 10 11 12 13 14 15 16 17
000
FTUS46 KSGX 222320
TAFSNA
TAF
KSNA 222320Z 2300/2324 22008KT P6SM SKC
     FM230200 VRB05KT P6SM SCT009
     FM230500 VRB04KT P6SM BKN008
     FM230900 VRB03KT 5SM BR BKN005
      TEMPO 2311/2315 2SM BR OVC003
     FM231500 VRB04KT 5SM BR BKN008
     FM231800 22009KT P6SM SCT010 SCT250=

USA.gov is the U.S. government's official web portal to all federal, state and local government web resources and services.